createdAt,value
2023-11-15T00:00:29.131Z,80.44
2023-11-15T00:02:55.842Z,80.56
2023-11-15T00:05:22.777Z,80.95
2023-11-15T00:07:50.400Z,81.02
2023-11-15T00:10:17.005Z,81.55
2023-11-15T00:12:46.265Z,81.88
2023-11-15T00:15:12.852Z,81.15
2023-11-15T00:17:39.476Z,81.41
2023-11-15T00:20:07.837Z,81.43
2023-11-15T00:22:34.400Z,81.93
2023-11-15T00:25:02.131Z,81.44
2023-11-15T00:27:28.724Z,81.11
2023-11-15T00:29:55.372Z,80.96
2023-11-15T00:32:23.082Z,80.80
2023-11-15T00:34:49.742Z,80.75
2023-11-15T00:37:16.762Z,81.16
2023-11-15T00:39:44.390Z,81.38
2023-11-15T00:42:11.839Z,80.89
2023-11-15T00:44:38.860Z,80.71
2023-11-15T00:47:06.811Z,80.49
2023-11-15T00:49:34.151Z,81.63
2023-11-15T00:52:00.918Z,80.22
2023-11-15T00:54:28.567Z,80.35
2023-11-15T00:56:55.211Z,80.73
2023-11-15T00:59:23.131Z,80.85
2023-11-15T01:01:49.953Z,82.11
2023-11-15T01:04:16.626Z,81.87
2023-11-15T01:06:44.303Z,81.72
2023-11-15T01:09:11.912Z,81.38
2023-11-15T01:11:38.641Z,81.33
2023-11-15T01:14:06.381Z,80.93
2023-11-15T01:16:32.993Z,80.91
2023-11-15T01:19:00.858Z,81.11
2023-11-15T01:21:27.444Z,81.36
2023-11-15T01:23:54.062Z,80.87
2023-11-15T01:26:21.820Z,80.92
2023-11-15T01:28:48.524Z,82.22
2023-11-15T01:31:15.104Z,81.55
2023-11-15T01:33:45.063Z,81.34
2023-11-15T01:36:11.670Z,82.03
2023-11-15T01:38:39.339Z,81.59
2023-11-15T01:41:06.134Z,81.66
2023-11-15T01:43:32.718Z,80.65
2023-11-15T01:46:00.374Z,81.70
2023-11-15T01:48:27.041Z,81.11
2023-11-15T01:50:54.840Z,81.25
2023-11-15T01:53:21.528Z,81.04
2023-11-15T01:55:49.279Z,81.99
2023-11-15T01:58:16.090Z,81.61
2023-11-15T02:00:42.943Z,81.16
2023-11-15T02:03:10.781Z,81.38
2023-11-15T02:05:37.475Z,80.95
2023-11-15T02:08:04.926Z,81.60
2023-11-15T02:10:32.889Z,81.19
2023-11-15T02:12:59.463Z,81.15
2023-11-15T02:15:26.042Z,81.40
2023-11-15T02:17:53.717Z,82.07
2023-11-15T02:20:20.422Z,81.62
2023-11-15T02:22:51.014Z,81.23
2023-11-15T02:25:18.751Z,81.25
2023-11-15T02:27:46.776Z,81.32
2023-11-15T02:30:13.418Z,81.08
2023-11-15T02:32:43.174Z,82.18
2023-11-15T02:35:10.998Z,81.49
2023-11-15T02:37:37.594Z,81.06
2023-11-15T02:40:05.675Z,81.91
2023-11-15T02:42:35.062Z,81.21
2023-11-15T02:45:01.826Z,81.61
2023-11-15T02:47:29.929Z,81.14
2023-11-15T02:49:56.570Z,81.26
2023-11-15T02:52:23.143Z,81.33
2023-11-15T02:54:51.011Z,80.43
2023-11-15T02:57:17.553Z,80.85
2023-11-15T02:59:45.193Z,79.98
2023-11-15T03:02:11.776Z,80.62
2023-11-15T03:04:38.904Z,79.96
2023-11-15T03:07:06.550Z,80.44
2023-11-15T03:09:33.131Z,79.45
2023-11-15T03:11:59.741Z,79.76
2023-11-15T03:14:27.720Z,79.09
2023-11-15T03:16:54.536Z,80.13
2023-11-15T03:19:21.206Z,80.51
2023-11-15T03:21:48.870Z,80.32
2023-11-15T03:24:15.483Z,79.78
2023-11-15T03:26:43.151Z,79.21
2023-11-15T03:29:09.735Z,79.22
2023-11-15T03:31:36.320Z,78.71
2023-11-15T03:34:03.999Z,78.49
2023-11-15T03:36:30.571Z,79.31
2023-11-15T03:38:59.316Z,78.88
2023-11-15T03:41:25.942Z,79.24
2023-11-15T03:43:52.493Z,78.20
2023-11-15T03:46:20.241Z,78.44
2023-11-15T03:48:47.906Z,78.71
2023-11-15T03:51:14.579Z,78.26
2023-11-15T03:53:41.190Z,77.50
2023-11-15T03:56:09.526Z,77.71
2023-11-15T03:58:36.069Z,77.84
2023-11-15T04:01:03.142Z,77.81
2023-11-15T04:03:30.853Z,76.03
2023-11-15T04:05:57.747Z,76.97
2023-11-15T04:08:24.340Z,77.29
2023-11-15T04:10:52.007Z,77.04
2023-11-15T04:13:18.565Z,76.29
2023-11-15T04:15:46.178Z,77.20
2023-11-15T04:18:12.811Z,77.83
2023-11-15T04:20:40.457Z,76.82
2023-11-15T04:23:08.094Z,76.23
2023-11-15T04:25:34.645Z,76.65
2023-11-15T04:28:02.291Z,76.49
2023-11-15T04:30:29.982Z,77.39
2023-11-15T04:32:56.637Z,77.64
2023-11-15T04:35:24.340Z,77.25
2023-11-15T04:37:51.075Z,77.96
2023-11-15T04:40:18.702Z,77.69
2023-11-15T04:42:46.375Z,78.07
2023-11-15T04:45:13.106Z,77.30
2023-11-15T04:47:40.217Z,77.73
2023-11-15T04:50:08.449Z,78.05
2023-11-15T04:52:36.042Z,77.56
2023-11-15T04:55:02.625Z,77.51
2023-11-15T04:57:31.290Z,77.24
2023-11-15T04:59:57.882Z,77.95
2023-11-15T05:02:24.653Z,77.49
2023-11-15T05:04:53.311Z,76.79
2023-11-15T05:07:21.188Z,76.95
2023-11-15T05:09:47.728Z,77.08
2023-11-15T05:12:15.388Z,76.88
2023-11-15T05:14:41.990Z,77.34
2023-11-15T05:17:09.702Z,77.55
2023-11-15T05:19:36.328Z,76.77
2023-11-15T05:22:02.925Z,78.55
2023-11-15T05:24:30.587Z,79.08
2023-11-15T05:26:57.176Z,78.25
2023-11-15T05:29:24.833Z,78.35
2023-11-15T05:31:51.778Z,78.60
2023-11-15T05:34:18.329Z,78.75
2023-11-15T05:36:45.954Z,78.58
2023-11-15T05:39:12.508Z,78.96
2023-11-15T05:41:40.194Z,78.84
2023-11-15T05:44:07.936Z,77.97
2023-11-15T05:46:34.625Z,78.85
2023-11-15T05:49:02.364Z,77.92
2023-11-15T05:51:29.020Z,77.96
2023-11-15T05:53:55.625Z,77.33
2023-11-15T05:56:23.381Z,77.00
2023-11-15T05:58:49.970Z,78.86
2023-11-15T06:01:17.632Z,77.58
2023-11-15T06:03:44.366Z,77.92
2023-11-15T06:06:11.012Z,78.13
2023-11-15T06:08:38.670Z,77.54
2023-11-15T06:11:05.554Z,77.25
2023-11-15T06:13:32.213Z,78.51
2023-11-15T06:15:59.864Z,78.19
2023-11-15T06:18:26.538Z,78.15
2023-11-15T06:20:53.204Z,77.61
2023-11-15T06:23:20.871Z,77.65
2023-11-15T06:25:47.433Z,79.07
2023-11-15T06:28:15.068Z,78.08
2023-11-15T06:30:42.925Z,77.67
2023-11-15T06:33:10.826Z,78.25
2023-11-15T06:35:37.579Z,77.35
2023-11-15T06:38:04.289Z,78.58
2023-11-15T06:40:31.933Z,78.23
2023-11-15T06:42:58.530Z,78.22
2023-11-15T06:45:26.179Z,77.63
2023-11-15T06:47:52.788Z,78.24
2023-11-15T06:50:20.411Z,77.93
2023-11-15T06:52:47.073Z,78.48
2023-11-15T06:55:13.641Z,77.81
2023-11-15T06:57:42.084Z,78.15
2023-11-15T07:00:10.808Z,77.67
2023-11-15T07:02:38.743Z,78.02
2023-11-15T07:05:06.269Z,77.79
2023-11-15T07:07:34.236Z,78.03
2023-11-15T07:10:00.828Z,79.03
2023-11-15T07:12:27.542Z,78.55
2023-11-15T07:14:55.218Z,78.48
2023-11-15T07:17:21.829Z,79.00
2023-11-15T07:19:48.396Z,78.34
2023-11-15T07:22:16.908Z,78.57
2023-11-15T07:24:44.172Z,78.40
2023-11-15T07:27:11.810Z,77.74
2023-11-15T07:29:38.488Z,78.21
2023-11-15T07:32:06.512Z,78.29
2023-11-15T07:34:33.440Z,78.50
2023-11-15T07:37:00.047Z,78.27
2023-11-15T07:39:28.186Z,78.49
2023-11-15T07:41:55.326Z,78.63
2023-11-15T07:44:22.956Z,79.55
2023-11-15T07:46:50.563Z,79.22
2023-11-15T07:49:18.000Z,78.82
2023-11-15T07:51:46.119Z,77.62
2023-11-15T07:54:12.860Z,78.73
2023-11-15T07:56:40.490Z,79.05
2023-11-15T07:59:07.363Z,78.98
2023-11-15T08:01:33.996Z,78.99
2023-11-15T08:04:01.843Z,78.94
2023-11-15T08:06:29.111Z,79.85
2023-11-15T08:08:55.693Z,79.63
2023-11-15T08:11:23.312Z,79.65
2023-11-15T08:13:49.851Z,79.18
2023-11-15T08:16:16.417Z,79.25
2023-11-15T08:18:44.105Z,79.06
2023-11-15T08:21:11.817Z,78.33
2023-11-15T08:23:38.449Z,80.38
2023-11-15T08:26:06.676Z,79.24
2023-11-15T08:28:33.235Z,78.37
2023-11-15T08:30:59.974Z,79.09
2023-11-15T08:33:28.848Z,79.40
2023-11-15T08:35:55.437Z,79.63
2023-11-15T08:38:22.054Z,79.27
2023-11-15T08:40:49.673Z,79.82
2023-11-15T08:43:19.050Z,79.65
2023-11-15T08:45:46.847Z,78.61
2023-11-15T08:48:13.710Z,78.62
2023-11-15T08:50:44.440Z,78.85
2023-11-15T08:53:14.381Z,79.16
2023-11-15T08:55:42.023Z,78.45
2023-11-15T08:58:08.705Z,79.52
2023-11-15T09:00:35.291Z,79.33
2023-11-15T09:03:03.053Z,79.58
2023-11-15T09:05:32.703Z,79.07
2023-11-15T09:07:59.409Z,78.53
2023-11-15T09:10:25.951Z,78.42
2023-11-15T09:12:53.744Z,77.80
2023-11-15T09:15:21.688Z,78.36
2023-11-15T09:17:48.429Z,78.62
2023-11-15T09:20:23.978Z,78.33
2023-11-15T09:22:51.659Z,78.62
2023-11-15T09:25:18.830Z,77.55
2023-11-15T09:27:45.362Z,76.80
2023-11-15T09:30:13.823Z,77.52
2023-11-15T09:32:43.839Z,77.82
2023-11-15T09:35:10.589Z,77.69
2023-11-15T09:37:40.984Z,77.15
2023-11-15T09:40:09.399Z,76.81
2023-11-15T09:42:39.561Z,81.08
2023-11-15T09:45:10.027Z,76.70
2023-11-15T09:47:38.503Z,75.13
2023-11-15T09:50:07.314Z,76.83
2023-11-15T09:52:34.941Z,75.22
2023-11-15T09:55:02.687Z,75.90
2023-11-15T09:57:29.270Z,73.66
2023-11-15T10:00:05.398Z,73.28
2023-11-15T10:02:40.816Z,74.34
2023-11-15T10:05:27.885Z,75.19
2023-11-15T10:08:14.283Z,74.93
2023-11-15T10:10:46.133Z,73.69
2023-11-15T10:13:18.369Z,73.09
2023-11-15T10:15:46.798Z,74.78
2023-11-15T10:18:15.580Z,74.44
2023-11-15T10:20:44.365Z,72.50
2023-11-15T10:23:11.710Z,74.38
2023-11-15T10:25:52.625Z,73.35
2023-11-15T10:28:20.324Z,73.12
2023-11-15T10:30:47.003Z,73.22
2023-11-15T10:33:14.808Z,72.84
2023-11-15T10:35:41.726Z,73.17
2023-11-15T10:38:09.394Z,70.79
2023-11-15T10:40:37.450Z,71.81
2023-11-15T10:43:06.619Z,73.16
2023-11-15T10:45:34.393Z,71.49
2023-11-15T10:48:07.542Z,71.77
2023-11-15T10:50:38.473Z,72.23
2023-11-15T10:53:06.156Z,72.78
2023-11-15T10:55:33.898Z,71.21
2023-11-15T10:58:02.927Z,71.43
2023-11-15T11:00:30.434Z,70.54
2023-11-15T11:03:00.371Z,72.15
2023-11-15T11:05:44.237Z,71.20
2023-11-15T11:08:38.748Z,70.61
2023-11-15T11:11:11.419Z,70.19
2023-11-15T11:13:39.548Z,70.80
2023-11-15T11:16:34.542Z,71.68
2023-11-15T11:19:20.192Z,71.74
2023-11-15T11:21:59.027Z,70.15
2023-11-15T11:24:26.650Z,69.77
2023-11-15T11:26:54.368Z,70.99
2023-11-15T11:29:20.995Z,70.55
2023-11-15T11:32:23.459Z,69.11
2023-11-15T11:35:02.341Z,70.02
2023-11-15T11:37:43.876Z,70.53
2023-11-15T11:40:10.438Z,70.16
2023-11-15T11:42:38.002Z,70.56
2023-11-15T11:45:06.193Z,70.68
2023-11-15T11:47:42.123Z,69.98
2023-11-15T11:50:10.405Z,70.21
2023-11-15T11:52:37.168Z,69.88
2023-11-15T11:55:04.991Z,68.65
2023-11-15T11:57:32.759Z,68.33
2023-11-15T12:00:06.681Z,68.50
2023-11-15T12:02:38.104Z,67.86
2023-11-15T12:05:05.637Z,66.97
2023-11-15T12:07:33.541Z,67.56
2023-11-15T12:10:04.576Z,66.53
2023-11-15T12:12:32.207Z,66.79
2023-11-15T12:14:59.767Z,65.65
2023-11-15T12:17:40.490Z,65.53
2023-11-15T12:20:08.632Z,66.29
2023-11-15T12:22:37.247Z,66.34
2023-11-15T12:25:05.696Z,65.81
2023-11-15T12:27:33.357Z,64.56
2023-11-15T12:30:01.117Z,64.73
2023-11-15T12:32:27.848Z,64.61
2023-11-15T12:34:55.458Z,63.80
2023-11-15T12:37:23.224Z,64.37
2023-11-15T12:39:49.828Z,64.59
2023-11-15T12:42:27.889Z,65.43
2023-11-15T12:44:54.566Z,64.06
2023-11-15T12:47:24.771Z,64.09
2023-11-15T12:49:52.457Z,64.50
2023-11-15T12:52:44.689Z,63.20
2023-11-15T12:55:15.512Z,64.07
2023-11-15T12:57:53.219Z,63.30
2023-11-15T13:00:29.456Z,63.10
2023-11-15T13:02:57.566Z,63.94
2023-11-15T13:05:29.181Z,62.75
2023-11-15T13:07:55.868Z,63.09
2023-11-15T13:10:23.786Z,63.66
2023-11-15T13:12:50.397Z,62.42
2023-11-15T13:15:18.088Z,62.99
2023-11-15T13:17:47.713Z,64.28
2023-11-15T13:20:14.359Z,62.00
2023-11-15T13:22:41.990Z,62.01
2023-11-15T13:25:08.785Z,62.40
2023-11-15T13:27:36.616Z,62.22
2023-11-15T13:30:03.508Z,61.67
2023-11-15T13:32:30.185Z,61.06
2023-11-15T13:34:57.875Z,62.13
2023-11-15T13:37:24.461Z,61.05
2023-11-15T13:39:52.078Z,62.12
2023-11-15T13:42:18.809Z,61.88
2023-11-15T13:44:45.412Z,59.92
2023-11-15T13:47:13.119Z,60.17
2023-11-15T13:49:39.700Z,60.58
2023-11-15T13:52:06.328Z,61.73
2023-11-15T13:54:33.995Z,61.23
2023-11-15T13:57:00.646Z,60.04
2023-11-15T13:59:27.260Z,60.78
2023-11-15T14:01:55.896Z,61.87
2023-11-15T14:04:23.571Z,60.81
2023-11-15T14:06:50.167Z,60.70
2023-11-15T14:09:16.726Z,60.78
2023-11-15T14:11:44.403Z,60.26
2023-11-15T14:14:11.044Z,61.02
2023-11-15T14:16:37.878Z,60.58
2023-11-15T14:19:05.580Z,61.08
2023-11-15T14:21:33.202Z,62.02
2023-11-15T14:23:59.862Z,63.09
2023-11-15T14:26:26.426Z,63.43
2023-11-15T14:28:54.079Z,63.34
2023-11-15T14:31:20.705Z,63.12
2023-11-15T14:33:47.439Z,63.47
2023-11-15T14:36:17.652Z,63.04
2023-11-15T14:38:46.085Z,62.79
2023-11-15T14:41:14.066Z,64.67
2023-11-15T14:43:42.273Z,63.68
2023-11-15T14:46:08.907Z,64.97
2023-11-15T14:48:35.581Z,63.77
2023-11-15T14:51:04.313Z,65.47
2023-11-15T14:53:31.493Z,64.82
2023-11-15T14:55:58.396Z,63.42
2023-11-15T14:58:26.045Z,65.04
2023-11-15T15:00:52.693Z,64.22
2023-11-15T15:03:19.388Z,64.56
2023-11-15T15:05:47.350Z,63.54
2023-11-15T15:08:13.907Z,65.26
2023-11-15T15:10:41.651Z,65.00
2023-11-15T15:13:08.263Z,63.89
2023-11-15T15:15:39.386Z,63.48
2023-11-15T15:18:13.255Z,64.16
2023-11-15T15:20:43.656Z,64.18
2023-11-15T15:23:11.381Z,65.77
2023-11-15T15:25:37.931Z,65.06
2023-11-15T15:28:05.359Z,64.12
2023-11-15T15:30:33.036Z,64.29
2023-11-15T15:33:01.277Z,65.76
2023-11-15T15:35:32.471Z,64.21
2023-11-15T15:37:59.868Z,62.80
2023-11-15T15:40:26.493Z,63.01
2023-11-15T15:42:54.777Z,63.14
2023-11-15T15:45:21.514Z,63.32
2023-11-15T15:47:50.148Z,63.52
2023-11-15T15:50:16.793Z,63.34
2023-11-15T15:52:44.053Z,63.07
2023-11-15T15:55:12.355Z,63.14
2023-11-15T15:57:39.422Z,63.45
2023-11-15T16:00:08.037Z,62.51
2023-11-15T16:02:36.444Z,63.16
2023-11-15T16:05:06.752Z,62.03
2023-11-15T16:07:33.610Z,61.82
2023-11-15T16:10:01.698Z,63.11
2023-11-15T16:12:28.981Z,62.42
2023-11-15T16:14:55.686Z,62.62
2023-11-15T16:17:23.869Z,61.59
2023-11-15T16:19:50.539Z,63.50
2023-11-15T16:22:18.151Z,63.44
2023-11-15T16:24:44.731Z,64.44
2023-11-15T16:27:13.701Z,65.73
2023-11-15T16:29:43.303Z,66.06
2023-11-15T16:32:10.925Z,65.42
2023-11-15T16:34:37.497Z,64.71
2023-11-15T16:37:05.353Z,63.53
2023-11-15T16:39:31.930Z,64.50
2023-11-15T16:41:58.539Z,65.93
2023-11-15T16:44:26.188Z,65.03
2023-11-15T16:46:52.755Z,64.96
2023-11-15T16:49:19.306Z,66.03
2023-11-15T16:51:47.072Z,65.21
2023-11-15T16:54:13.730Z,65.77
2023-11-15T16:56:40.288Z,65.80
2023-11-15T16:59:07.886Z,66.45
2023-11-15T17:01:34.436Z,65.55
2023-11-15T17:04:01.373Z,65.50
2023-11-15T17:06:29.119Z,65.98
2023-11-15T17:08:55.694Z,66.15
2023-11-15T17:11:22.272Z,66.04
2023-11-15T17:13:49.955Z,66.00
2023-11-15T17:16:16.646Z,66.20
2023-11-15T17:18:44.572Z,66.37
2023-11-15T17:21:11.191Z,66.20
2023-11-15T17:23:38.508Z,66.32
2023-11-15T17:26:06.536Z,66.76
2023-11-15T17:28:33.092Z,67.01
2023-11-15T17:30:59.658Z,67.42
2023-11-15T17:33:27.353Z,67.93
2023-11-15T17:35:54.000Z,67.44
2023-11-15T17:38:20.609Z,67.78
2023-11-15T17:40:48.207Z,68.21
2023-11-15T17:43:14.780Z,68.14
2023-11-15T17:45:41.470Z,68.14
2023-11-15T17:48:09.271Z,68.57
2023-11-15T17:50:35.926Z,68.62
2023-11-15T17:53:03.566Z,68.40
2023-11-15T17:55:30.665Z,68.83
2023-11-15T17:57:57.286Z,68.73
2023-11-15T18:00:25.166Z,68.61
2023-11-15T18:02:51.885Z,68.04
2023-11-15T18:05:19.645Z,67.87
2023-11-15T18:07:46.719Z,68.23
2023-11-15T18:10:14.622Z,68.08
2023-11-15T18:12:43.870Z,68.97
2023-11-15T18:15:11.602Z,69.37
2023-11-15T18:17:39.279Z,68.66
2023-11-15T18:20:06.648Z,68.08
2023-11-15T18:22:33.208Z,67.78
2023-11-15T18:25:00.849Z,68.18
2023-11-15T18:27:27.711Z,67.33
2023-11-15T18:29:54.302Z,68.22
2023-11-15T18:32:22.416Z,67.89
2023-11-15T18:34:50.078Z,69.41
2023-11-15T18:37:16.622Z,69.12
2023-11-15T18:39:43.207Z,68.54
2023-11-15T18:42:14.113Z,69.41
2023-11-15T18:44:41.791Z,69.37
2023-11-15T18:47:11.621Z,69.85
2023-11-15T18:49:39.768Z,70.55
2023-11-15T18:52:06.867Z,69.81
2023-11-15T18:54:34.570Z,69.50
2023-11-15T18:57:01.250Z,69.98
2023-11-15T18:59:28.895Z,70.79
2023-11-15T19:01:56.524Z,71.81
2023-11-15T19:04:23.179Z,71.91
2023-11-15T19:06:50.911Z,71.80
2023-11-15T19:09:17.676Z,72.25
2023-11-15T19:11:45.361Z,71.34
2023-11-15T19:14:12.954Z,71.47
2023-11-15T19:16:39.568Z,71.65
2023-11-15T19:19:07.356Z,71.23
2023-11-15T19:21:34.077Z,71.74
2023-11-15T19:24:04.627Z,72.30
2023-11-15T19:26:31.211Z,72.21
2023-11-15T19:28:58.832Z,71.46
2023-11-15T19:31:25.481Z,72.38
2023-11-15T19:33:52.112Z,71.01
2023-11-15T19:36:19.803Z,71.69
2023-11-15T19:38:46.525Z,72.55
2023-11-15T19:41:23.372Z,72.25
2023-11-15T19:43:50.100Z,71.65
2023-11-15T19:46:20.577Z,71.84
2023-11-15T19:48:47.738Z,72.48
2023-11-15T19:51:15.016Z,71.54
2023-11-15T19:53:42.668Z,71.86
2023-11-15T19:56:10.323Z,71.96
2023-11-15T19:58:36.889Z,72.11
2023-11-15T20:01:03.787Z,72.91
2023-11-15T20:03:31.557Z,72.89
2023-11-15T20:05:58.202Z,72.25
2023-11-15T20:08:25.806Z,72.21
2023-11-15T20:10:53.476Z,71.75
2023-11-15T20:13:21.144Z,71.18
2023-11-15T20:15:47.672Z,73.18
2023-11-15T20:18:15.381Z,73.78
2023-11-15T20:20:41.948Z,73.66
2023-11-15T20:23:08.520Z,73.87
2023-11-15T20:25:36.126Z,73.03
2023-11-15T20:28:02.680Z,73.37
2023-11-15T20:30:30.436Z,73.59
2023-11-15T20:32:57.138Z,72.70
2023-11-15T20:35:24.888Z,72.32
2023-11-15T20:37:51.505Z,72.43
2023-11-15T20:40:18.080Z,72.72
2023-11-15T20:42:45.900Z,73.13
2023-11-15T20:45:12.696Z,72.11
2023-11-15T20:47:40.520Z,73.03
2023-11-15T20:50:07.674Z,72.43
2023-11-15T20:52:34.921Z,72.25
2023-11-15T20:55:02.883Z,72.67
2023-11-15T20:57:29.459Z,71.88
2023-11-15T21:00:00.020Z,72.51
2023-11-15T21:02:26.975Z,72.42
2023-11-15T21:04:54.786Z,72.52
2023-11-15T21:07:21.501Z,72.04
2023-11-15T21:09:49.133Z,72.65
2023-11-15T21:12:15.731Z,73.03
2023-11-15T21:14:43.376Z,72.59
2023-11-15T21:17:09.950Z,72.10
2023-11-15T21:19:40.635Z,71.87
2023-11-15T21:22:07.271Z,72.26
2023-11-15T21:24:34.030Z,71.85
2023-11-15T21:27:01.747Z,72.59
2023-11-15T21:29:28.360Z,73.17
2023-11-15T21:31:56.076Z,72.63
2023-11-15T21:34:22.667Z,71.91
2023-11-15T21:36:50.267Z,71.32
2023-11-15T21:39:16.839Z,71.85
2023-11-15T21:41:43.439Z,71.99
2023-11-15T21:44:11.111Z,71.72
2023-11-15T21:46:37.688Z,72.67
2023-11-15T21:49:05.279Z,71.75
2023-11-15T21:51:33.007Z,72.50
2023-11-15T21:54:01.707Z,71.84
2023-11-15T21:56:28.324Z,71.76
2023-11-15T21:58:54.906Z,72.38
2023-11-15T22:01:23.693Z,71.86
2023-11-15T22:03:50.422Z,72.72
2023-11-15T22:06:17.167Z,72.96
2023-11-15T22:08:46.246Z,72.74
2023-11-15T22:11:12.626Z,72.88
2023-11-15T22:13:40.247Z,72.82
2023-11-15T22:16:07.943Z,72.97
2023-11-15T22:18:38.380Z,72.69
2023-11-15T22:21:07.277Z,72.03
2023-11-15T22:23:33.931Z,71.32
2023-11-15T22:26:01.797Z,72.43
2023-11-15T22:28:28.376Z,73.00
2023-11-15T22:30:55.007Z,72.85
2023-11-15T22:33:22.663Z,72.83
2023-11-15T22:35:49.801Z,71.63
2023-11-15T22:38:17.491Z,71.50
2023-11-15T22:40:44.095Z,72.15
2023-11-15T22:43:11.361Z,71.51
2023-11-15T22:45:39.224Z,72.34
2023-11-15T22:48:06.449Z,72.84
2023-11-15T22:50:35.213Z,73.00
2023-11-15T22:53:01.785Z,73.42
2023-11-15T22:55:29.394Z,72.51
2023-11-15T22:57:55.958Z,72.19
2023-11-15T23:00:22.609Z,72.52
2023-11-15T23:02:51.403Z,72.11
2023-11-15T23:05:18.113Z,72.52
2023-11-15T23:07:45.814Z,72.30
2023-11-15T23:10:12.393Z,72.64
2023-11-15T23:12:40.107Z,72.78
2023-11-15T23:15:07.052Z,73.27
2023-11-15T23:17:33.648Z,72.65
2023-11-15T23:20:01.277Z,72.68
2023-11-15T23:22:28.933Z,73.01
2023-11-15T23:24:56.708Z,72.83
2023-11-15T23:27:23.333Z,72.70
2023-11-15T23:29:50.974Z,72.93
2023-11-15T23:32:17.561Z,72.98
2023-11-15T23:34:44.150Z,74.02
2023-11-15T23:37:11.785Z,73.58
2023-11-15T23:39:38.430Z,74.28
2023-11-15T23:42:06.408Z,74.03
2023-11-15T23:44:33.024Z,73.83
2023-11-15T23:47:00.709Z,74.42
2023-11-15T23:49:28.376Z,74.29
2023-11-15T23:51:54.964Z,73.72
2023-11-15T23:54:22.747Z,73.75
2023-11-15T23:56:49.326Z,73.94
2023-11-15T23:59:16.972Z,74.64
